sensor_id;sensor_type;location;lat;lon;timestamp;pressure;altitude;pressure_sealevel;temperature;humidity
38285;BME280;24088;42.664;23.354;2022-07-29T00:00:20;95178.03;;;20.67;100.00
38285;BME280;24088;42.664;23.354;2022-07-29T00:01:20;95179.09;;;20.70;100.00
38285;BME280;24088;42.664;23.354;2022-07-29T00:02:22;95181.19;;;20.75;100.00
38285;BME280;24088;42.664;23.354;2022-07-29T00:03:22;95190.34;;;20.75;100.00
38285;BME280;24088;42.664;23.354;2022-07-29T00:04:24;95183.78;;;20.79;100.00
38285;BME280;24088;42.664;23.354;2022-07-29T00:05:24;95186.84;;;20.81;100.00
38285;BME280;24088;42.664;23.354;2022-07-29T00:06:26;95189.94;;;20.83;100.00
38285;BME280;24088;42.664;23.354;2022-07-29T00:07:26;95191.75;;;21.00;100.00
38285;BME280;24088;42.664;23.354;2022-07-29T00:08:28;95190.03;;;21.03;100.00
38285;BME280;24088;42.664;23.354;2022-07-29T00:09:28;95197.59;;;21.02;100.00
38285;BME280;24088;42.664;23.354;2022-07-29T00:10:31;95192.41;;;21.10;100.00
38285;BME280;24088;42.664;23.354;2022-07-29T00:11:32;95200.19;;;21.21;100.00
38285;BME280;24088;42.664;23.354;2022-07-29T00:12:34;95187.97;;;21.18;100.00
38285;BME280;24088;42.664;23.354;2022-07-29T00:13:34;95201.47;;;21.05;100.00
38285;BME280;24088;42.664;23.354;2022-07-29T00:14:36;95195.91;;;20.90;100.00
38285;BME280;24088;42.664;23.354;2022-07-29T00:15:36;95193.78;;;20.85;100.00
38285;BME280;24088;42.664;23.354;2022-07-29T00:16:37;95197.94;;;20.90;100.00
38285;BME280;24088;42.664;23.354;2022-07-29T00:17:38;95197.16;;;20.89;100.00
38285;BME280;24088;42.664;23.354;2022-07-29T00:18:39;95197.63;;;20.88;100.00
38285;BME280;24088;42.664;23.354;2022-07-29T00:19:40;95200.44;;;20.88;100.00
38285;BME280;24088;42.664;23.354;2022-07-29T00:20:41;95197.81;;;20.99;100.00
38285;BME280;24088;42.664;23.354;2022-07-29T00:21:42;95199.34;;;21.00;100.00
38285;BME280;24088;42.664;23.354;2022-07-29T00:22:43;95201.28;;;21.09;100.00
38285;BME280;24088;42.664;23.354;2022-07-29T00:23:44;95197.38;;;20.86;100.00
38285;BME280;24088;42.664;23.354;2022-07-29T00:25:47;95198.88;;;21.01;100.00
38285;BME280;24088;42.664;23.354;2022-07-29T00:26:48;95205.81;;;20.91;100.00
38285;BME280;24088;42.664;23.354;2022-07-29T00:27:49;95202.63;;;20.98;100.00
38285;BME280;24088;42.664;23.354;2022-07-29T00:28:50;95201.84;;;20.98;100.00
38285;BME280;24088;42.664;23.354;2022-07-29T00:29:51;95188.59;;;20.93;100.00
38285;BME280;24088;42.664;23.354;2022-07-29T00:30:52;95191.28;;;20.87;100.00
38285;BME280;24088;42.664;23.354;2022-07-29T00:31:53;95193.00;;;20.85;100.00
38285;BME280;24088;42.664;23.354;2022-07-29T00:32:54;95190.91;;;20.94;100.00
38285;BME280;24088;42.664;23.354;2022-07-29T00:33:55;95195.91;;;20.90;100.00
38285;BME280;24088;42.664;23.354;2022-07-29T00:34:57;95186.38;;;20.97;100.00
38285;BME280;24088;42.664;23.354;2022-07-29T00:36:15;95184.91;;;21.01;100.00
38285;BME280;24088;42.664;23.354;2022-07-29T00:37:16;95189.06;;;20.91;100.00
38285;BME280;24088;42.664;23.354;2022-07-29T00:38:17;95192.44;;;20.95;100.00
38285;BME280;24088;42.664;23.354;2022-07-29T00:39:18;95191.47;;;20.84;100.00
38285;BME280;24088;42.664;23.354;2022-07-29T00:40:19;95189.84;;;20.92;100.00
38285;BME280;24088;42.664;23.354;2022-07-29T00:42:22;95189.84;;;20.92;100.00
38285;BME280;24088;42.664;23.354;2022-07-29T00:43:23;95190.91;;;20.94;100.00
38285;BME280;24088;42.664;23.354;2022-07-29T00:44:24;95200.22;;;20.91;100.00
38285;BME280;24088;42.664;23.354;2022-07-29T00:45:25;95194.56;;;20.86;100.00
38285;BME280;24088;42.664;23.354;2022-07-29T00:46:26;95202.63;;;20.84;100.00
38285;BME280;24088;42.664;23.354;2022-07-29T00:47:27;95198.50;;;20.79;100.00
38285;BME280;24088;42.664;23.354;2022-07-29T00:48:28;95204.09;;;20.79;100.00
38285;BME280;24088;42.664;23.354;2022-07-29T00:49:29;95205.03;;;20.76;100.00
38285;BME280;24088;42.664;23.354;2022-07-29T00:50:30;95200.72;;;20.75;100.00
38285;BME280;24088;42.664;23.354;2022-07-29T00:51:32;95206.50;;;20.71;100.00
38285;BME280;24088;42.664;23.354;2022-07-29T00:52:32;95203.25;;;20.73;100.00
38285;BME280;24088;42.664;23.354;2022-07-29T00:53:34;95199.19;;;20.74;100.00
38285;BME280;24088;42.664;23.354;2022-07-29T00:54:35;95200.03;;;20.80;100.00
38285;BME280;24088;42.664;23.354;2022-07-29T00:55:37;95204.66;;;20.68;100.00
38285;BME280;24088;42.664;23.354;2022-07-29T00:56:38;95202.44;;;20.72;100.00
38285;BME280;24088;42.664;23.354;2022-07-29T00:57:41;95207.16;;;20.81;100.00
38285;BME280;24088;42.664;23.354;2022-07-29T00:58:42;95212.47;;;20.79;100.00
38285;BME280;24088;42.664;23.354;2022-07-29T00:59:44;95209.75;;;20.85;100.00
38285;BME280;24088;42.664;23.354;2022-07-29T01:00:44;95208.22;;;20.98;100.00
38285;BME280;24088;42.664;23.354;2022-07-29T01:01:46;95205.06;;;20.91;100.00
38285;BME280;24088;42.664;23.354;2022-07-29T01:02:46;95206.38;;;20.81;100.00
38285;BME280;24088;42.664;23.354;2022-07-29T01:03:48;95211.00;;;20.84;100.00
38285;BME280;24088;42.664;23.354;2022-07-29T01:04:49;95199.78;;;20.78;100.00
38285;BME280;24088;42.664;23.354;2022-07-29T01:05:51;95198.81;;;20.66;100.00
38285;BME280;24088;42.664;23.354;2022-07-29T01:06:52;95197.44;;;20.76;100.00
38285;BME280;24088;42.664;23.354;2022-07-29T01:07:56;95198.72;;;20.61;100.00
38285;BME280;24088;42.664;23.354;2022-07-29T01:08:58;95199.78;;;20.48;100.00
38285;BME280;24088;42.664;23.354;2022-07-29T01:09:59;95196.66;;;20.46;100.00
38285;BME280;24088;42.664;23.354;2022-07-29T01:11:01;95201.13;;;20.53;100.00
38285;BME280;24088;42.664;23.354;2022-07-29T01:12:03;95203.94;;;20.29;100.00
38285;BME280;24088;42.664;23.354;2022-07-29T01:13:06;95199.22;;;20.20;100.00
38285;BME280;24088;42.664;23.354;2022-07-29T01:14:08;95198.84;;;20.27;100.00
38285;BME280;24088;42.664;23.354;2022-07-29T01:15:09;95194.34;;;20.45;100.00
38285;BME280;24088;42.664;23.354;2022-07-29T01:16:13;95191.50;;;20.54;100.00
38285;BME280;24088;42.664;23.354;2022-07-29T01:17:17;95189.59;;;20.60;100.00
38285;BME280;24088;42.664;23.354;2022-07-29T01:18:20;95189.28;;;20.58;100.00
38285;BME280;24088;42.664;23.354;2022-07-29T01:19:33;95193.59;;;20.59;100.00
38285;BME280;24088;42.664;23.354;2022-07-29T01:20:46;95194.09;;;20.58;100.00
38285;BME280;24088;42.664;23.354;2022-07-29T01:21:53;95197.66;;;20.58;100.00
38285;BME280;24088;42.664;23.354;2022-07-29T01:23:07;95193.41;;;20.63;100.00
38285;BME280;24088;42.664;23.354;2022-07-29T01:24:20;95192.06;;;20.58;100.00
38285;BME280;24088;42.664;23.354;2022-07-29T01:25:34;95192.06;;;20.43;100.00
38285;BME280;24088;42.664;23.354;2022-07-29T01:26:47;95186.34;;;20.38;100.00
38285;BME280;24088;42.664;23.354;2022-07-29T01:27:57;95192.03;;;20.29;100.00
38285;BME280;24088;42.664;23.354;2022-07-29T01:29:05;95190.97;;;20.41;100.00
38285;BME280;24088;42.664;23.354;2022-07-29T01:30:06;95192.03;;;20.29;100.00
38285;BME280;24088;42.664;23.354;2022-07-29T01:31:08;95186.25;;;20.17;100.00
38285;BME280;24088;42.664;23.354;2022-07-29T01:32:14;95194.13;;;20.19;100.00
38285;BME280;24088;42.664;23.354;2022-07-29T01:33:17;95184.69;;;20.16;100.00
38285;BME280;24088;42.664;23.354;2022-07-29T01:34:35;95184.81;;;20.37;100.00
38285;BME280;24088;42.664;23.354;2022-07-29T01:35:40;95188.00;;;20.44;100.00
38285;BME280;24088;42.664;23.354;2022-07-29T01:36:43;95183.03;;;20.48;100.00
38285;BME280;24088;42.664;23.354;2022-07-29T01:37:46;95188.56;;;20.34;100.00
38285;BME280;24088;42.664;23.354;2022-07-29T01:38:50;95185.00;;;20.18;100.00
38285;BME280;24088;42.664;23.354;2022-07-29T01:39:54;95178.94;;;20.20;100.00
38285;BME280;24088;42.664;23.354;2022-07-29T01:40:58;95174.84;;;20.30;100.00
38285;BME280;24088;42.664;23.354;2022-07-29T01:42:04;95171.50;;;20.56;100.00
38285;BME280;24088;42.664;23.354;2022-07-29T01:43:08;95174.78;;;20.69;100.00
38285;BME280;24088;42.664;23.354;2022-07-29T01:44:12;95176.09;;;20.73;100.00
38285;BME280;24088;42.664;23.354;2022-07-29T01:45:17;95169.66;;;20.67;100.00
38285;BME280;24088;42.664;23.354;2022-07-29T01:46:21;95179.66;;;20.59;100.00
38285;BME280;24088;42.664;23.354;2022-07-29T01:47:31;95172.94;;;20.66;100.00
38285;BME280;24088;42.664;23.354;2022-07-29T01:48:34;95178.03;;;20.67;100.00
38285;BME280;24088;42.664;23.354;2022-07-29T01:49:39;95174.84;;;20.74;100.00
38285;BME280;24088;42.664;23.354;2022-07-29T01:50:44;95186.69;;;20.69;100.00
38285;BME280;24088;42.664;23.354;2022-07-29T01:51:47;95180.22;;;20.63;100.00
38285;BME280;24088;42.664;23.354;2022-07-29T01:52:51;95175.16;;;20.62;100.00
38285;BME280;24088;42.664;23.354;2022-07-29T01:53:54;95171.88;;;20.48;100.00
38285;BME280;24088;42.664;23.354;2022-07-29T01:54:58;95173.97;;;20.39;100.00
38285;BME280;24088;42.664;23.354;2022-07-29T01:56:00;95175.09;;;20.32;100.00
38285;BME280;24088;42.664;23.354;2022-07-29T01:57:02;95180.28;;;20.24;100.00
38285;BME280;24088;42.664;23.354;2022-07-29T01:58:05;95171.47;;;20.26;100.00
38285;BME280;24088;42.664;23.354;2022-07-29T01:59:06;95180.38;;;20.15;100.00
38285;BME280;24088;42.664;23.354;2022-07-29T02:00:10;95175.66;;;20.07;100.00
38285;BME280;24088;42.664;23.354;2022-07-29T02:01:11;95180.28;;;20.10;100.00
38285;BME280;24088;42.664;23.354;2022-07-29T02:02:15;95183.47;;;20.17;100.00
38285;BME280;24088;42.664;23.354;2022-07-29T02:03:16;95174.34;;;20.32;100.00
38285;BME280;24088;42.664;23.354;2022-07-29T02:04:18;95173.38;;;20.35;100.00
38285;BME280;24088;42.664;23.354;2022-07-29T02:05:20;95166.75;;;20.32;100.00
38285;BME280;24088;42.664;23.354;2022-07-29T02:06:23;95170.75;;;20.16;100.00
38285;BME280;24088;42.664;23.354;2022-07-29T02:07:25;95165.44;;;19.89;100.00
38285;BME280;24088;42.664;23.354;2022-07-29T02:08:29;95168.16;;;19.98;100.00
38285;BME280;24088;42.664;23.354;2022-07-29T02:09:33;95162.47;;;19.92;100.00
38285;BME280;24088;42.664;23.354;2022-07-29T02:10:36;95168.91;;;19.98;100.00
38285;BME280;24088;42.664;23.354;2022-07-29T02:11:38;95165.09;;;20.11;100.00
38285;BME280;24088;42.664;23.354;2022-07-29T02:12:42;95167.69;;;20.14;100.00
38285;BME280;24088;42.664;23.354;2022-07-29T02:13:43;95159.91;;;20.18;100.00
38285;BME280;24088;42.664;23.354;2022-07-29T02:14:45;95162.88;;;20.15;100.00
38285;BME280;24088;42.664;23.354;2022-07-29T02:15:48;95159.25;;;20.23;100.00
38285;BME280;24088;42.664;23.354;2022-07-29T02:16:52;95153.47;;;20.27;100.00
38285;BME280;24088;42.664;23.354;2022-07-29T02:17:54;95159.53;;;20.25;100.00
38285;BME280;24088;42.664;23.354;2022-07-29T02:18:56;95156.72;;;20.25;100.00
38285;BME280;24088;42.664;23.354;2022-07-29T02:19:59;95160.78;;;20.10;100.00
38285;BME280;24088;42.664;23.354;2022-07-29T02:21:01;95161.03;;;20.12;100.00
38285;BME280;24088;42.664;23.354;2022-07-29T02:22:03;95162.13;;;20.29;100.00
38285;BME280;24088;42.664;23.354;2022-07-29T02:23:07;95152.63;;;20.36;100.00
38285;BME280;24088;42.664;23.354;2022-07-29T02:24:09;95156.00;;;20.40;100.00
38285;BME280;24088;42.664;23.354;2022-07-29T02:25:12;95153.00;;;20.43;100.00
38285;BME280;24088;42.664;23.354;2022-07-29T02:26:13;95157.03;;;20.27;100.00
38285;BME280;24088;42.664;23.354;2022-07-29T02:27:16;95160.78;;;20.10;100.00
38285;BME280;24088;42.664;23.354;2022-07-29T02:28:17;95162.22;;;20.05;100.00
38285;BME280;24088;42.664;23.354;2022-07-29T02:29:20;95162.47;;;20.07;100.00
38285;BME280;24088;42.664;23.354;2022-07-29T02:30:22;95162.22;;;20.05;100.00
38285;BME280;24088;42.664;23.354;2022-07-29T02:31:26;95151.84;;;20.20;100.00
38285;BME280;24088;42.664;23.354;2022-07-29T02:32:28;95163.66;;;20.15;100.00
38285;BME280;24088;42.664;23.354;2022-07-29T02:33:30;95160.78;;;20.10;100.00
38285;BME280;24088;42.664;23.354;2022-07-29T02:34:31;95163.25;;;20.08;100.00
38285;BME280;24088;42.664;23.354;2022-07-29T02:35:34;95157.97;;;20.10;100.00
38285;BME280;24088;42.664;23.354;2022-07-29T02:36:34;95154.63;;;20.20;100.00
38285;BME280;24088;42.664;23.354;2022-07-29T02:37:37;95142.31;;;20.12;100.00
38285;BME280;24088;42.664;23.354;2022-07-29T02:38:38;95142.25;;;20.21;100.00
38285;BME280;24088;42.664;23.354;2022-07-29T02:39:51;95145.13;;;20.27;100.00
38285;BME280;24088;42.664;23.354;2022-07-29T02:40:52;95145.88;;;20.27;100.00
38285;BME280;24088;42.664;23.354;2022-07-29T02:41:55;95141.28;;;20.39;100.00
38285;BME280;24088;42.664;23.354;2022-07-29T02:42:58;95141.38;;;20.45;100.00
38285;BME280;24088;42.664;23.354;2022-07-29T02:44:02;95137.66;;;20.48;100.00
38285;BME280;24088;42.664;23.354;2022-07-29T02:45:05;95141.47;;;20.36;100.00
38285;BME280;24088;42.664;23.354;2022-07-29T02:46:07;95132.63;;;20.37;100.00
38285;BME280;24088;42.664;23.354;2022-07-29T02:47:12;95130.69;;;20.29;100.00
38285;BME280;24088;42.664;23.354;2022-07-29T02:48:14;95131.34;;;20.38;100.00
38285;BME280;24088;42.664;23.354;2022-07-29T02:49:17;95129.16;;;20.42;100.00
38285;BME280;24088;42.664;23.354;2022-07-29T02:50:20;95129.81;;;20.37;100.00
38285;BME280;24088;42.664;23.354;2022-07-29T02:51:23;95125.78;;;20.23;100.00
38285;BME280;24088;42.664;23.354;2022-07-29T02:52:26;95130.22;;;20.15;100.00
38285;BME280;24088;42.664;23.354;2022-07-29T02:53:28;95130.69;;;20.29;100.00
38285;BME280;24088;42.664;23.354;2022-07-29T02:54:31;95138.06;;;20.17;100.00
38285;BME280;24088;42.664;23.354;2022-07-29T02:55:36;95131.00;;;20.31;100.00
38285;BME280;24088;42.664;23.354;2022-07-29T02:56:37;95140.50;;;20.24;100.00
38285;BME280;24088;42.664;23.354;2022-07-29T02:57:41;95142.25;;;20.21;100.00
38285;BME280;24088;42.664;23.354;2022-07-29T02:58:44;95137.34;;;20.31;100.00
38285;BME280;24088;42.664;23.354;2022-07-29T02:59:48;95137.06;;;20.44;100.00
38285;BME280;24088;42.664;23.354;2022-07-29T03:00:50;95133.19;;;20.41;100.00
38285;BME280;24088;42.664;23.354;2022-07-29T03:01:52;95134.94;;;20.39;100.00
38285;BME280;24088;42.664;23.354;2022-07-29T03:02:56;95134.44;;;20.40;100.00
38285;BME280;24088;42.664;23.354;2022-07-29T03:04:00;95140.22;;;20.37;100.00
38285;BME280;24088;42.664;23.354;2022-07-29T03:05:01;95136.38;;;20.34;100.00
38285;BME280;24088;42.664;23.354;2022-07-29T03:06:03;95134.44;;;20.25;100.00
38285;BME280;24088;42.664;23.354;2022-07-29T03:07:05;95132.91;;;20.10;100.00
38285;BME280;24088;42.664;23.354;2022-07-29T03:08:08;95130.69;;;20.14;100.00
38285;BME280;24088;42.664;23.354;2022-07-29T03:09:10;95134.53;;;20.16;100.00
38285;BME280;24088;42.664;23.354;2022-07-29T03:10:11;95126.88;;;20.26;100.00
38285;BME280;24088;42.664;23.354;2022-07-29T03:11:13;95132.81;;;20.34;100.00
38285;BME280;24088;42.664;23.354;2022-07-29T03:12:15;95134.16;;;20.38;100.00
38285;BME280;24088;42.664;23.354;2022-07-29T03:13:16;95138.09;;;20.32;100.00
38285;BME280;24088;42.664;23.354;2022-07-29T03:14:18;95131.00;;;20.31;100.00
38285;BME280;24088;42.664;23.354;2022-07-29T03:15:19;95139.94;;;20.35;100.00
38285;BME280;24088;42.664;23.354;2022-07-29T03:16:21;95133.19;;;20.26;100.00
38285;BME280;24088;42.664;23.354;2022-07-29T03:17:22;95142.03;;;20.25;100.00
38285;BME280;24088;42.664;23.354;2022-07-29T03:18:25;95137.53;;;20.27;100.00
38285;BME280;24088;42.664;23.354;2022-07-29T03:19:26;95140.59;;;20.15;100.00
38285;BME280;24088;42.664;23.354;2022-07-29T03:20:28;95137.63;;;20.18;100.00
38285;BME280;24088;42.664;23.354;2022-07-29T03:21:28;95139.94;;;20.35;100.00
38285;BME280;24088;42.664;23.354;2022-07-29T03:22:30;95142.41;;;20.33;100.00
38285;BME280;24088;42.664;23.354;2022-07-29T03:23:31;95137.91;;;20.35;100.00
38285;BME280;24088;42.664;23.354;2022-07-29T03:24:32;95131.00;;;20.31;100.00
38285;BME280;24088;42.664;23.354;2022-07-29T03:25:33;95133.47;;;20.29;100.00
38285;BME280;24088;42.664;23.354;2022-07-29T03:26:35;95135.00;;;20.30;100.00
38285;BME280;24088;42.664;23.354;2022-07-29T03:27:35;95139.06;;;20.29;100.00
38285;BME280;24088;42.664;23.354;2022-07-29T03:28:37;95144.06;;;20.24;100.00
38285;BME280;24088;42.664;23.354;2022-07-29T03:29:37;95143.88;;;20.13;100.00
38285;BME280;24088;42.664;23.354;2022-07-29T03:30:39;95140.97;;;20.08;100.00
38285;BME280;24088;42.664;23.354;2022-07-29T03:31:39;95140.69;;;20.06;100.00
38285;BME280;24088;42.664;23.354;2022-07-29T03:32:41;95138.34;;;20.04;100.00
38285;BME280;24088;42.664;23.354;2022-07-29T03:33:43;95149.81;;;20.06;100.00
38285;BME280;24088;42.664;23.354;2022-07-29T03:34:44;95138.19;;;20.22;100.00
38285;BME280;24088;42.664;23.354;2022-07-29T03:35:45;95139.53;;;20.12;100.00
38285;BME280;24088;42.664;23.354;2022-07-29T03:36:46;95142.44;;;20.18;100.00
38285;BME280;24088;42.664;23.354;2022-07-29T03:37:48;95146.34;;;20.11;100.00
38285;BME280;24088;42.664;23.354;2022-07-29T03:38:49;95143.75;;;20.08;100.00
38285;BME280;24088;42.664;23.354;2022-07-29T03:39:50;95149.50;;;20.04;100.00
38285;BME280;24088;42.664;23.354;2022-07-29T03:40:52;95151.53;;;20.04;100.00
38285;BME280;24088;42.664;23.354;2022-07-29T03:41:55;95148.94;;;20.00;100.00
38285;BME280;24088;42.664;23.354;2022-07-29T03:42:58;95152.38;;;19.95;100.00
38285;BME280;24088;42.664;23.354;2022-07-29T03:44:00;95153.44;;;19.97;100.00
38285;BME280;24088;42.664;23.354;2022-07-29T03:45:04;95155.06;;;19.89;100.00
38285;BME280;24088;42.664;23.354;2022-07-29T03:46:06;95148.72;;;20.04;100.00
38285;BME280;24088;42.664;23.354;2022-07-29T03:47:08;95157.19;;;19.94;100.00
38285;BME280;24088;42.664;23.354;2022-07-29T03:48:10;95161.91;;;20.03;100.00
38285;BME280;24088;42.664;23.354;2022-07-29T03:49:15;95156.72;;;19.96;100.00
38285;BME280;24088;42.664;23.354;2022-07-29T03:50:16;95159.97;;;19.94;100.00
38285;BME280;24088;42.664;23.354;2022-07-29T03:51:19;95155.47;;;19.97;100.00
38285;BME280;24088;42.664;23.354;2022-07-29T03:52:20;95158.38;;;20.17;100.00
38285;BME280;24088;42.664;23.354;2022-07-29T03:53:22;95156.06;;;20.16;100.00
38285;BME280;24088;42.664;23.354;2022-07-29T03:54:22;95160.78;;;20.10;100.00
38285;BME280;24088;42.664;23.354;2022-07-29T03:55:24;95163.75;;;20.06;100.00
38285;BME280;24088;42.664;23.354;2022-07-29T03:56:25;95164.19;;;19.90;100.00
38285;BME280;24088;42.664;23.354;2022-07-29T03:57:28;95165.94;;;20.02;100.00
38285;BME280;24088;42.664;23.354;2022-07-29T03:58:30;95166.53;;;20.21;100.00
38285;BME280;24088;42.664;23.354;2022-07-29T03:59:33;95168.09;;;20.37;100.00
38285;BME280;24088;42.664;23.354;2022-07-29T04:00:33;95161.78;;;20.51;100.00
38285;BME280;24088;42.664;23.354;2022-07-29T04:01:35;95159.81;;;20.42;100.00
38285;BME280;24088;42.664;23.354;2022-07-29T04:02:37;95160.69;;;20.34;100.00
38285;BME280;24088;42.664;23.354;2022-07-29T04:03:40;95162.22;;;20.20;100.00
38285;BME280;24088;42.664;23.354;2022-07-29T04:04:42;95168.66;;;20.11;100.00
38285;BME280;24088;42.664;23.354;2022-07-29T04:05:43;95172.19;;;20.12;100.00
38285;BME280;24088;42.664;23.354;2022-07-29T04:06:44;95167.59;;;20.23;100.00
38285;BME280;24088;42.664;23.354;2022-07-29T04:07:47;95173.38;;;20.20;100.00
38285;BME280;24088;42.664;23.354;2022-07-29T04:08:48;95168.94;;;20.13;100.00
38285;BME280;24088;42.664;23.354;2022-07-29T04:09:50;95167.88;;;20.11;100.00
38285;BME280;24088;42.664;23.354;2022-07-29T04:10:50;95172.50;;;20.14;100.00
38285;BME280;24088;42.664;23.354;2022-07-29T04:11:52;95165.00;;;20.05;100.00
38285;BME280;24088;42.664;23.354;2022-07-29T04:12:54;95166.34;;;20.10;100.00
38285;BME280;24088;42.664;23.354;2022-07-29T04:13:54;95162.97;;;20.20;100.00
38285;BME280;24088;42.664;23.354;2022-07-29T04:14:55;95169.91;;;20.10;100.00
38285;BME280;24088;42.664;23.354;2022-07-29T04:15:56;95158.53;;;19.99;100.00
38285;BME280;24088;42.664;23.354;2022-07-29T04:16:58;95162.97;;;20.06;100.00
38285;BME280;24088;42.664;23.354;2022-07-29T04:17:58;95171.72;;;20.13;100.00
38285;BME280;24088;42.664;23.354;2022-07-29T04:19:00;95166.44;;;20.15;100.00
38285;BME280;24088;42.664;23.354;2022-07-29T04:20:02;95165.50;;;20.18;100.00
38285;BME280;24088;42.664;23.354;2022-07-29T04:21:03;95155.00;;;20.28;100.00
38285;BME280;24088;42.664;23.354;2022-07-29T04:22:04;95157.81;;;20.43;100.00
38285;BME280;24088;42.664;23.354;2022-07-29T04:23:06;95161.47;;;20.34;100.00
38285;BME280;24088;42.664;23.354;2022-07-29T04:24:06;95160.91;;;20.30;100.00
38285;BME280;24088;42.664;23.354;2022-07-29T04:25:08;95159.25;;;20.23;100.00
38285;BME280;24088;42.664;23.354;2022-07-29T04:26:09;95158.88;;;20.31;100.00
38285;BME280;24088;42.664;23.354;2022-07-29T04:27:10;95155.22;;;20.39;100.00
38285;BME280;24088;42.664;23.354;2022-07-29T04:28:11;95156.38;;;20.47;100.00
38285;BME280;24088;42.664;23.354;2022-07-29T04:29:12;95151.75;;;20.59;100.00
38285;BME280;24088;42.664;23.354;2022-07-29T04:30:14;95154.78;;;20.56;100.00
38285;BME280;24088;42.664;23.354;2022-07-29T04:31:15;95158.03;;;20.54;100.00
38285;BME280;24088;42.664;23.354;2022-07-29T04:32:17;95151.00;;;20.59;100.00
38285;BME280;24088;42.664;23.354;2022-07-29T04:33:17;95157.94;;;20.48;100.00
38285;BME280;24088;42.664;23.354;2022-07-29T04:34:19;95155.25;;;20.54;100.00
38285;BME280;24088;42.664;23.354;2022-07-29T04:35:21;95158.28;;;20.26;100.00
38285;BME280;24088;42.664;23.354;2022-07-29T04:36:22;95157.03;;;20.42;100.00
38285;BME280;24088;42.664;23.354;2022-07-29T04:37:24;95161.97;;;20.47;100.00
38285;BME280;24088;42.664;23.354;2022-07-29T04:38:25;95164.19;;;20.58;100.00
38285;BME280;24088;42.664;23.354;2022-07-29T04:39:27;95166.09;;;20.67;100.00
38285;BME280;24088;42.664;23.354;2022-07-29T04:40:27;95162.75;;;20.48;100.00
38285;BME280;24088;42.664;23.354;2022-07-29T04:41:29;95163.78;;;20.50;100.00
38285;BME280;24088;42.664;23.354;2022-07-29T04:42:29;95164.09;;;20.53;100.00
38285;BME280;24088;42.664;23.354;2022-07-29T04:43:31;95171.78;;;20.58;100.00
38285;BME280;24088;42.664;23.354;2022-07-29T04:44:31;95175.16;;;20.62;100.00
38285;BME280;24088;42.664;23.354;2022-07-29T04:45:32;95181.13;;;20.69;100.00
38285;BME280;24088;42.664;23.354;2022-07-29T04:46:33;95177.84;;;20.71;100.00
38285;BME280;24088;42.664;23.354;2022-07-29T04:47:34;95176.19;;;20.79;100.00
38285;BME280;24088;42.664;23.354;2022-07-29T04:48:35;95179.28;;;20.66;100.00
38285;BME280;24088;42.664;23.354;2022-07-29T04:49:37;95178.91;;;20.73;100.00
38285;BME280;24088;42.664;23.354;2022-07-29T04:50:39;95179.19;;;20.75;100.00
38285;BME280;24088;42.664;23.354;2022-07-29T04:51:40;95179.81;;;20.85;100.00
38285;BME280;24088;42.664;23.354;2022-07-29T04:52:41;95177.16;;;20.91;100.00
38285;BME280;24088;42.664;23.354;2022-07-29T04:53:42;95167.56;;;20.77;100.00
38285;BME280;24088;42.664;23.354;2022-07-29T04:54:43;95168.78;;;20.91;100.00
38285;BME280;24088;42.664;23.354;2022-07-29T04:55:44;95172.22;;;21.00;100.00
38285;BME280;24088;42.664;23.354;2022-07-29T04:57:46;95171.44;;;21.00;100.00
38285;BME280;24088;42.664;23.354;2022-07-29T04:58:47;95176.34;;;21.05;100.00
38285;BME280;24088;42.664;23.354;2022-07-29T04:59:48;95185.47;;;21.06;100.00
38285;BME280;24088;42.664;23.354;2022-07-29T05:00:49;95183.75;;;21.08;100.00
38285;BME280;24088;42.664;23.354;2022-07-29T05:01:50;95185.66;;;21.17;100.00
38285;BME280;24088;42.664;23.354;2022-07-29T05:02:51;95181.63;;;21.33;100.00
38285;BME280;24088;42.664;23.354;2022-07-29T05:03:52;95181.47;;;21.42;100.00
38285;BME280;24088;42.664;23.354;2022-07-29T05:04:53;95180.81;;;21.32;100.00
38285;BME280;24088;42.664;23.354;2022-07-29T05:05:56;95178.81;;;21.33;100.00
38285;BME280;24088;42.664;23.354;2022-07-29T05:06:56;95183.97;;;21.40;100.00
38285;BME280;24088;42.664;23.354;2022-07-29T05:07:58;95183.38;;;21.50;100.00
38285;BME280;24088;42.664;23.354;2022-07-29T05:08:59;95188.53;;;21.58;100.00
38285;BME280;24088;42.664;23.354;2022-07-29T05:10:00;95185.69;;;21.72;100.00
38285;BME280;24088;42.664;23.354;2022-07-29T05:11:01;95186.72;;;21.75;100.00
38285;BME280;24088;42.664;23.354;2022-07-29T05:12:02;95184.94;;;21.72;100.00
38285;BME280;24088;42.664;23.354;2022-07-29T05:13:04;95176.75;;;21.68;100.00
38285;BME280;24088;42.664;23.354;2022-07-29T05:14:04;95177.47;;;22.56;100.00
38285;BME280;24088;42.664;23.354;2022-07-29T05:15:06;95180.66;;;22.69;100.00
38285;BME280;24088;42.664;23.354;2022-07-29T05:16:07;95186.91;;;22.85;100.00
38285;BME280;24088;42.664;23.354;2022-07-29T05:17:09;95181.84;;;22.89;100.00
38285;BME280;24088;42.664;23.354;2022-07-29T05:18:09;95180.00;;;23.12;100.00
38285;BME280;24088;42.664;23.354;2022-07-29T05:19:11;95185.88;;;22.56;100.00
38285;BME280;24088;42.664;23.354;2022-07-29T05:20:11;95191.41;;;22.77;100.00
38285;BME280;24088;42.664;23.354;2022-07-29T05:21:14;95188.00;;;22.93;100.00
38285;BME280;24088;42.664;23.354;2022-07-29T05:22:14;95188.41;;;23.12;100.00
38285;BME280;24088;42.664;23.354;2022-07-29T05:23:16;95186.13;;;23.16;100.00
38285;BME280;24088;42.664;23.354;2022-07-29T05:24:17;95192.81;;;23.24;100.00